KAIK

Aiken Municipal Airport

Aiken, South Carolina, USA
METAR KAIK 230315Z AUTO 13003KT 10SM SCT070 21/21 A3014 RMK AO2
Observed Flight Rules
May-23 @ 03:15 UTC (10 minutes ago) Visual Flight Rules
Wind Visibility Clouds
130° at 3 knots 10 miles
  • Scattered at 7,000' AGL
Temperatures Readings
Current 21°C / 70°F
Dewpoint 21°C / 70°F
Humidity 100%
Altimeter 30.14" Hg
Pressure 1021 hPa
Elevation 161
METAR KAIK 230315Z AUTO 13003KT 10SM SCT070 21/21 A3014 RMK AO2
Observed Flight Rules
May-23 @ 03:15 UTC
(10 minutes ago)
VFR
Wind Visibility
130° at 3 knots 10 miles
Clouds
  • Scattered at 7,000' AGL
Temperature Dewpoint
21°C / 70°F 21°C / 70°F
Humidity Altimeter Pressure
100% 30.14" Hg 1021 hPa